Private Wetterstation Wechselburg
Wetterdaten: Woche 04.04.22 - 10.04.22 (KW14)
Datum Zeit Temp. +2m Bodentemp. Temp.+5cm Temp. Wind Windchill X Diff Temp. Feuchte +2m Feuchte +5cm Luftdruck Regen Wind Richtung Sonnenschein Taupunkt Windchill Windben
04.04.2022 00:00 2,4 C 6,3 C 1,7 C 1,9 C 0,8 C 0,0 C 67 % 71 % 1020,8 hPa 0,0 l/m 4,2 km/h (1 Bft) SW 0,00 h -3,1 C 0,6 C 5,8 km/h (1 Bft)
04.04.2022 01:00 2,2 C 6,3 C 1,4 C 1,5 C 0,2 C 0,0 C 68 % 72 % 1020,7 hPa 0,0 l/m 5,1 km/h (1 Bft) SW 0,00 h -3,1 C -1,2 C 7,5 km/h (2 Bft)
04.04.2022 02:00 1,7 C 6,3 C 0,7 C 1,2 C 0,1 C 0,0 C 69 % 74 % 1020,4 hPa 0,0 l/m 3,2 km/h (1 Bft) SW 0,00 h -3,3 C 0,1 C 3,4 km/h (1 Bft)
04.04.2022 03:00 1,4 C 6,3 C 0,4 C 0,9 C -0,1 C 0,0 C 70 % 74 % 1019,9 hPa 0,0 l/m 2,7 km/h (1 Bft) S-SO 0,00 h -3,5 C -0,1 C 5,5 km/h (1 Bft)
04.04.2022 04:00 0,8 C 6,2 C -0,3 C 0,1 C -1,4 C 0,0 C 71 % 76 % 1019,4 hPa 0,0 l/m 3,4 km/h (1 Bft) S-SO 0,00 h -3,8 C -1,8 C 4,9 km/h (1 Bft)
04.04.2022 05:00 0,5 C 6,1 C -0,5 C -0,1 C -1,2 C 0,0 C 72 % 77 % 1019,0 hPa 0,0 l/m 1,8 km/h (1 Bft) O-SO 0,00 h -3,9 C -1,2 C 2,6 km/h (1 Bft)
04.04.2022 06:00 0,5 C 6,0 C -0,3 C -0,1 C -1,1 C 0,0 C 71 % 75 % 1018,5 hPa 0,0 l/m 2,7 km/h (1 Bft) SO 0,00 h -4,2 C -1,1 C 3,8 km/h (1 Bft)
04.04.2022 07:00 0,7 C 5,9 C 0,1 C 0,4 C -0,4 C 0,1 C 69 % 72 % 1018,3 hPa 0,0 l/m 4,1 km/h (1 Bft) S 0,00 h -4,2 C -0,7 C 7,2 km/h (2 Bft)
04.04.2022 08:00 1,8 C 5,8 C 1,5 C 5,3 C 5,3 C 3,5 C 68 % 70 % 1017,8 hPa 0,0 l/m 4,7 km/h (1 Bft) SW 0,67 h -3,5 C 4,6 C 8,7 km/h (2 Bft)
04.04.2022 09:00 3,2 C 5,8 C 2,9 C 5,4 C 5,2 C 2,2 C 65 % 67 % 1017,2 hPa 0,0 l/m 6,8 km/h (2 Bft) S 0,25 h -2,7 C 3,7 C 10,6 km/h (2 Bft)
04.04.2022 10:00 4,4 C 5,9 C 5,9 C 6,0 C 5,5 C 1,6 C 63 % 60 % 1016,9 hPa 0,0 l/m 9,9 km/h (2 Bft) SW 0,00 h -2,0 C 3,3 C 14,6 km/h (3 Bft)
04.04.2022 11:00 5,3 C 5,9 C 7,2 C 5,7 C 4,9 C 0,4 C 59 % 54 % 1015,8 hPa 0,0 l/m 13,3 km/h (3 Bft) SW 0,00 h -2,0 C 1,9 C 18,5 km/h (3 Bft)
04.04.2022 12:00 5,9 C 6,0 C 9,3 C 7,6 C 7,0 C 1,6 C 58 % 49 % 1014,8 hPa 0,0 l/m 12,9 km/h (3 Bft) SW 0,00 h -1,8 C 4,5 C 18,7 km/h (3 Bft)
04.04.2022 13:00 6,6 C 6,0 C 9,2 C 8,2 C 7,7 C 1,5 C 53 % 46 % 1013,5 hPa 0,0 l/m 13,7 km/h (3 Bft) SW 0,00 h -2,3 C 5,2 C 15,8 km/h (3 Bft)
04.04.2022 14:00 7,3 C 6,1 C 9,6 C 9,4 C 9,1 C 2,1 C 50 % 44 % 1012,6 hPa 0,0 l/m 13,0 km/h (3 Bft) SW 0,00 h -2,4 C 7,1 C 16,8 km/h (3 Bft)
04.04.2022 15:00 6,9 C 6,3 C 8,1 C 7,4 C 6,2 C 0,6 C 51 % 48 % 1010,9 hPa 0,0 l/m 13,9 km/h (3 Bft) SW 0,00 h -2,5 C 3,4 C 19,8 km/h (3 Bft)
04.04.2022 16:00 5,2 C 6,4 C 5,6 C 4,7 C 2,7 C 0,0 C 61 % 61 % 1010,0 hPa 0,0 l/m 12,9 km/h (3 Bft) SW 0,00 h -1,6 C -0,7 C 17,7 km/h (3 Bft)
04.04.2022 17:00 4,9 C 6,5 C 4,7 C 4,2 C 2,1 C 0,0 C 63 % 64 % 1009,0 hPa 0,0 l/m 13,0 km/h (3 Bft) S-SO 0,00 h -1,7 C -1,5 C 16,8 km/h (3 Bft)
04.04.2022 18:00 4,7 C 6,5 C 4,3 C 3,9 C 1,4 C 0,0 C 65 % 68 % 1008,3 hPa 0,0 l/m 12,4 km/h (3 Bft) SO 0,00 h -1,3 C -2,1 C 14,8 km/h (3 Bft)
04.04.2022 19:00 4,6 C 6,5 C 4,0 C 3,8 C 1,6 C 0,0 C 67 % 70 % 1007,4 hPa 0,0 l/m 10,4 km/h (2 Bft) S 0,00 h -1,0 C -1,5 C 16,0 km/h (3 Bft)
04.04.2022 20:00 4,5 C 6,5 C 3,6 C 3,5 C 0,4 C 0,0 C 70 % 75 % 1007,3 hPa 0,0 l/m 12,9 km/h (3 Bft) S 0,00 h -0,4 C -3,5 C 16,9 km/h (3 Bft)
04.04.2022 21:00 4,6 C 6,6 C 3,6 C 3,6 C 0,7 C 0,0 C 73 % 78 % 1007,1 hPa 0,0 l/m 14,1 km/h (3 Bft) S 0,00 h 0,2 C -3,4 C 16,6 km/h (3 Bft)
04.04.2022 22:00 4,3 C 6,7 C 3,3 C 3,2 C -0,2 C 0,0 C 77 % 82 % 1007,2 hPa 0,0 l/m 13,8 km/h (3 Bft) SW 0,00 h 0,6 C -4,4 C 18,6 km/h (3 Bft)
04.04.2022 23:00 4,3 C 6,7 C 3,3 C 3,2 C 0,2 C 0,0 C 79 % 86 % 1006,9 hPa 0,0 l/m 13,8 km/h (3 Bft) SW 0,00 h 1,0 C -3,9 C 16,5 km/h (3 Bft)
05.04.2022 00:00 4,5 C 6,7 C 3,7 C 3,7 C 1,0 C 0,0 C 79 % 86 % 1006,7 hPa 0,0 l/m 14,6 km/h (3 Bft) S 0,00 h 1,3 C -3,1 C 16,5 km/h (3 Bft)
05.04.2022 01:00 4,4 C 6,9 C 3,5 C 3,5 C 0,8 C 0,0 C 81 % 87 % 1006,7 hPa 0,0 l/m 12,3 km/h (3 Bft) S 0,00 h 1,4 C -2,9 C 18,2 km/h (3 Bft)
05.04.2022 02:00 4,0 C 7,2 C 3,0 C 2,9 C -0,3 C 0,0 C 84 % 90 % 1006,5 hPa 1,4 l/m 12,6 km/h (3 Bft) SW 0,00 h 1,6 C -4,3 C 17,0 km/h (3 Bft)
05.04.2022 03:00 3,9 C 7,2 C 2,9 C 2,8 C -0,2 C 0,0 C 85 % 91 % 1006,2 hPa 2,7 l/m 12,0 km/h (2 Bft) S 0,00 h 1,7 C -4,0 C 16,2 km/h (3 Bft)
05.04.2022 04:00 3,8 C 7,2 C 2,8 C 2,8 C 0,3 C 0,0 C 87 % 91 % 1005,8 hPa 1,4 l/m 9,8 km/h (2 Bft) SW 0,00 h 1,7 C -2,9 C 12,1 km/h (2 Bft)
05.04.2022 05:00 3,8 C 7,0 C 2,9 C 3,0 C 0,9 C 0,0 C 88 % 91 % 1005,6 hPa 0,7 l/m 8,0 km/h (2 Bft) SW 0,00 h 2,0 C -1,7 C 11,7 km/h (2 Bft)
05.04.2022 06:00 3,9 C 7,0 C 3,2 C 3,1 C 1,1 C 0,0 C 88 % 91 % 1005,7 hPa 0,0 l/m 8,4 km/h (2 Bft) S 0,00 h 2,1 C -1,6 C 9,0 km/h (2 Bft)
05.04.2022 07:00 4,1 C 7,0 C 3,4 C 3,3 C 1,5 C 0,0 C 88 % 92 % 1005,9 hPa 0,7 l/m 7,9 km/h (2 Bft) SW 0,00 h 2,3 C -0,9 C 9,3 km/h (2 Bft)
05.04.2022 08:00 4,5 C 7,0 C 4,3 C 4,1 C 2,7 C 0,0 C 88 % 91 % 1006,8 hPa 0,7 l/m 9,3 km/h (2 Bft) S 0,00 h 2,7 C 0,1 C 12,2 km/h (2 Bft)
05.04.2022 09:00 5,7 C 6,9 C 6,0 C 6,1 C 5,6 C 0,4 C 88 % 91 % 1007,3 hPa 0,0 l/m 10,3 km/h (2 Bft) SW 0,00 h 3,9 C 3,4 C 11,6 km/h (2 Bft)
05.04.2022 10:00 6,7 C 6,9 C 7,4 C 7,9 C 7,6 C 1,3 C 88 % 90 % 1007,4 hPa 0,0 l/m 9,0 km/h (2 Bft) S-SW 0,00 h 4,8 C 5,9 C 10,8 km/h (2 Bft)
05.04.2022 11:00 7,4 C 7,0 C 8,8 C 8,3 C 7,9 C 0,9 C 87 % 88 % 1007,7 hPa 0,0 l/m 10,1 km/h (2 Bft) SW 0,00 h 5,4 C 6,1 C 13,0 km/h (3 Bft)
05.04.2022 12:00 7,6 C 7,2 C 8,4 C 7,8 C 6,8 C 0,4 C 86 % 87 % 1007,8 hPa 0,0 l/m 10,2 km/h (2 Bft) SW 0,00 h 5,3 C 4,8 C 11,9 km/h (2 Bft)
05.04.2022 13:00 7,2 C 7,4 C 7,3 C 6,9 C 6,3 C 0,0 C 87 % 91 % 1007,9 hPa 0,7 l/m 6,1 km/h (2 Bft) SW 0,00 h 5,3 C 5,3 C 8,5 km/h (2 Bft)
05.04.2022 14:00 8,2 C 7,3 C 7,9 C 7,8 C 6,5 C 0,0 C 85 % 90 % 1007,5 hPa 0,0 l/m 10,2 km/h (2 Bft) SW 0,00 h 5,8 C 4,4 C 12,2 km/h (2 Bft)
05.04.2022 15:00 8,5 C 7,4 C 8,2 C 8,2 C 7,5 C 0,1 C 84 % 90 % 1007,4 hPa 0,0 l/m 7,5 km/h (2 Bft) S 0,00 h 6,0 C 6,3 C 9,1 km/h (2 Bft)
05.04.2022 16:00 8,6 C 7,6 C 8,4 C 8,4 C 8,0 C 0,0 C 84 % 89 % 1007,0 hPa 0,0 l/m 6,9 km/h (2 Bft) SW 0,00 h 6,1 C 6,9 C 9,4 km/h (2 Bft)
05.04.2022 17:00 9,1 C 7,6 C 8,8 C 9,2 C 8,7 C 0,1 C 83 % 89 % 1006,7 hPa 0,0 l/m 9,7 km/h (2 Bft) S 0,00 h 6,4 C 7,1 C 12,1 km/h (2 Bft)
05.04.2022 18:00 9,2 C 7,8 C 8,6 C 8,9 C 8,3 C 0,0 C 82 % 88 % 1006,8 hPa 0,0 l/m 7,7 km/h (2 Bft) S 0,00 h 6,3 C 7,1 C 8,3 km/h (2 Bft)
05.04.2022 19:00 8,4 C 8,2 C 7,4 C 7,7 C 6,4 C 0,0 C 86 % 91 % 1006,8 hPa 1,4 l/m 6,9 km/h (2 Bft) W-SW 0,00 h 6,1 C 5,1 C 9,3 km/h (2 Bft)
05.04.2022 20:00 8,0 C 8,3 C 7,1 C 7,6 C 6,8 C 0,0 C 88 % 91 % 1007,1 hPa 0,7 l/m 5,1 km/h (1 Bft) W-SW 0,00 h 6,1 C 6,2 C 6,7 km/h (2 Bft)
05.04.2022 21:00 8,1 C 8,3 C 7,1 C 7,7 C 6,7 C 0,0 C 88 % 91 % 1007,4 hPa 0,0 l/m 5,2 km/h (1 Bft) SO 0,00 h 6,3 C 6,1 C 8,3 km/h (2 Bft)
05.04.2022 22:00 8,6 C 8,1 C 7,5 C 8,3 C 7,5 C 0,0 C 86 % 91 % 1007,5 hPa 0,0 l/m 7,0 km/h (2 Bft) O-SO 0,00 h 6,4 C 6,5 C 9,6 km/h (2 Bft)
05.04.2022 23:00 8,9 C 8,1 C 8,0 C 8,6 C 8,1 C 0,0 C 84 % 90 % 1007,2 hPa 0,0 l/m 7,0 km/h (2 Bft) W-SW 0,00 h 6,3 C 7,0 C 8,8 km/h (2 Bft)
06.04.2022 00:00 9,1 C 8,2 C 8,2 C 8,9 C 8,4 C 0,0 C 83 % 89 % 1007,0 hPa 0,0 l/m 6,3 km/h (2 Bft) SW 0,00 h 6,3 C 7,6 C 8,8 km/h (2 Bft)
06.04.2022 01:00 9,1 C 8,2 C 8,3 C 9,0 C 8,7 C 0,0 C 83 % 88 % 1007,1 hPa 0,0 l/m 5,7 km/h (1 Bft) W-SW 0,00 h 6,4 C 8,1 C 8,6 km/h (2 Bft)
06.04.2022 02:00 8,9 C 8,5 C 7,9 C 8,4 C 7,3 C 0,0 C 85 % 90 % 1006,9 hPa 0,7 l/m 6,4 km/h (2 Bft) N-NO 0,00 h 6,5 C 6,3 C 9,7 km/h (2 Bft)
06.04.2022 03:00 8,9 C 8,6 C 7,8 C 8,5 C 7,6 C 0,0 C 87 % 91 % 1006,5 hPa 0,0 l/m 5,1 km/h (1 Bft) S-SO 0,00 h 6,8 C 7,1 C 7,6 km/h (2 Bft)
06.04.2022 04:00 9,3 C 8,5 C 8,1 C 9,0 C 8,2 C 0,0 C 85 % 91 % 1006,2 hPa 0,0 l/m 7,0 km/h (2 Bft) O-SO 0,00 h 7,0 C 7,2 C 11,1 km/h (2 Bft)
06.04.2022 05:00 9,2 C 8,5 C 8,2 C 9,1 C 8,8 C 0,0 C 85 % 91 % 1006,1 hPa 0,0 l/m 5,4 km/h (1 Bft) SO 0,00 h 6,8 C 8,3 C 6,2 km/h (2 Bft)
06.04.2022 06:00 9,3 C 8,5 C 8,4 C 9,1 C 8,7 C 0,0 C 83 % 89 % 1006,3 hPa 0,0 l/m 6,0 km/h (2 Bft) SW 0,00 h 6,6 C 8,1 C 8,8 km/h (2 Bft)
06.04.2022 07:00 9,4 C 8,6 C 8,4 C 9,2 C 8,9 C 0,0 C 82 % 89 % 1006,4 hPa 0,0 l/m 5,6 km/h (1 Bft) SW 0,00 h 6,5 C 8,3 C 7,5 km/h (2 Bft)
06.04.2022 08:00 9,4 C 8,6 C 8,8 C 9,5 C 9,4 C 0,1 C 82 % 88 % 1006,7 hPa 0,0 l/m 5,8 km/h (1 Bft) SW 0,00 h 6,5 C 8,8 C 6,0 km/h (2 Bft)
06.04.2022 09:00 10,1 C 8,6 C 9,8 C 10,8 C 10,8 C 0,7 C 78 % 82 % 1006,6 hPa 0,0 l/m 4,4 km/h (1 Bft) S 0,00 h 6,5 C 10,8 C 7,0 km/h (2 Bft)
06.04.2022 10:00 10,6 C 8,6 C 10,9 C 11,8 C 11,8 C 1,2 C 77 % 78 % 1006,5 hPa 0,0 l/m 6,1 km/h (2 Bft) SW 0,00 h 6,7 C 11,8 C 9,3 km/h (2 Bft)
06.04.2022 11:00 11,6 C 8,7 C 12,9 C 13,0 C 12,8 C 1,4 C 68 % 67 % 1006,1 hPa 0,0 l/m 11,8 km/h (2 Bft) SW 0,00 h 5,9 C 12,8 C 16,6 km/h (3 Bft)
06.04.2022 12:00 12,5 C 8,7 C 15,0 C 14,4 C 14,1 C 1,9 C 63 % 58 % 1005,6 hPa 0,0 l/m 13,3 km/h (3 Bft) SW 0,00 h 5,6 C 14,1 C 16,3 km/h (3 Bft)
06.04.2022 13:00 13,2 C 8,8 C 15,9 C 15,9 C 15,8 C 2,6 C 61 % 56 % 1005,2 hPa 0,0 l/m 13,4 km/h (3 Bft) W-SW 0,25 h 5,9 C 15,8 C 15,2 km/h (3 Bft)
06.04.2022 14:00 13,9 C 8,9 C 16,5 C 16,5 C 16,4 C 2,7 C 59 % 53 % 1005,1 hPa 0,0 l/m 11,6 km/h (2 Bft) SW 0,42 h 6,0 C 16,4 C 15,7 km/h (3 Bft)
06.04.2022 15:00 14,0 C 9,1 C 14,9 C 16,0 C 15,9 C 1,9 C 61 % 59 % 1004,2 hPa 0,0 l/m 9,1 km/h (2 Bft) S-SW 0,00 h 6,7 C 15,9 C 12,6 km/h (3 Bft)
06.04.2022 16:00 14,3 C 9,2 C 14,6 C 15,5 C 15,4 C 1,3 C 60 % 59 % 1003,8 hPa 0,0 l/m 10,4 km/h (2 Bft) SW 0,00 h 6,6 C 15,4 C 13,8 km/h (3 Bft)
06.04.2022 17:00 14,1 C 9,4 C 14,2 C 14,7 C 14,6 C 0,6 C 60 % 60 % 1003,3 hPa 0,0 l/m 10,0 km/h (2 Bft) SW 0,00 h 6,4 C 14,6 C 12,3 km/h (3 Bft)
06.04.2022 18:00 13,8 C 9,5 C 13,5 C 14,5 C 14,4 C 0,7 C 59 % 61 % 1003,0 hPa 0,0 l/m 8,9 km/h (2 Bft) S 0,00 h 6,0 C 14,4 C 10,3 km/h (2 Bft)
06.04.2022 19:00 12,9 C 9,7 C 11,7 C 12,9 C 12,7 C 0,1 C 63 % 66 % 1002,6 hPa 0,0 l/m 4,9 km/h (1 Bft) S-SW 0,00 h 6,0 C 12,7 C 4,7 km/h (1 Bft)
06.04.2022 20:00 11,7 C 9,7 C 10,1 C 11,4 C 10,8 C 0,0 C 66 % 71 % 1002,5 hPa 0,0 l/m 4,0 km/h (1 Bft) SW 0,00 h 5,6 C 10,8 C 5,0 km/h (1 Bft)
06.04.2022 21:00 11,3 C 9,7 C 9,8 C 11,0 C 10,4 C 0,0 C 66 % 71 % 1002,6 hPa 0,0 l/m 5,2 km/h (1 Bft) SW 0,00 h 5,3 C 10,4 C 6,6 km/h (2 Bft)
06.04.2022 22:00 10,8 C 9,7 C 9,5 C 10,5 C 9,9 C 0,0 C 67 % 71 % 1002,5 hPa 0,0 l/m 4,7 km/h (1 Bft) SW 0,00 h 4,9 C 9,6 C 6,3 km/h (2 Bft)
06.04.2022 23:00 10,1 C 9,8 C 8,8 C 9,9 C 9,3 C 0,0 C 67 % 72 % 1002,4 hPa 0,0 l/m 4,2 km/h (1 Bft) S-SO 0,00 h 4,3 C 9,3 C 6,3 km/h (2 Bft)
07.04.2022 00:00 9,8 C 9,8 C 8,5 C 9,5 C 8,9 C 0,0 C 69 % 73 % 1001,8 hPa 0,0 l/m 3,4 km/h (1 Bft) S 0,00 h 4,3 C 8,9 C 3,9 km/h (1 Bft)
07.04.2022 01:00 9,4 C 9,7 C 7,9 C 9,0 C 8,3 C 0,0 C 70 % 76 % 1001,3 hPa 0,0 l/m 3,8 km/h (1 Bft) SO 0,00 h 4,3 C 8,1 C 6,2 km/h (2 Bft)
07.04.2022 02:00 9,2 C 9,7 C 7,9 C 8,7 C 7,7 C 0,0 C 73 % 77 % 1000,7 hPa 0,0 l/m 6,2 km/h (2 Bft) S-SO 0,00 h 4,5 C 6,9 C 9,3 km/h (2 Bft)
07.04.2022 03:00 9,1 C 9,6 C 7,8 C 8,7 C 7,8 C 0,0 C 74 % 78 % 1000,1 hPa 0,0 l/m 4,8 km/h (1 Bft) S 0,00 h 4,6 C 7,4 C 7,1 km/h (2 Bft)
07.04.2022 04:00 9,2 C 9,6 C 7,9 C 8,7 C 7,2 C 0,0 C 75 % 80 % 999,4 hPa 0,0 l/m 9,7 km/h (2 Bft) S 0,00 h 5,1 C 5,3 C 14,0 km/h (3 Bft)
07.04.2022 05:00 9,3 C 9,6 C 8,0 C 8,8 C 7,6 C 0,0 C 77 % 82 % 998,6 hPa 0,0 l/m 7,9 km/h (2 Bft) SO 0,00 h 5,5 C 6,2 C 9,7 km/h (2 Bft)
07.04.2022 06:00 9,8 C 9,6 C 8,6 C 9,3 C 8,0 C 0,0 C 77 % 81 % 998,1 hPa 0,0 l/m 9,6 km/h (2 Bft) S-SO 0,00 h 5,9 C 6,4 C 16,2 km/h (3 Bft)
07.04.2022 07:00 9,9 C 9,6 C 9,0 C 9,6 C 8,9 C 0,0 C 74 % 77 % 997,6 hPa 0,0 l/m 7,9 km/h (2 Bft) S-SO 0,00 h 5,5 C 7,7 C 8,6 km/h (2 Bft)
07.04.2022 08:00 10,3 C 9,5 C 10,0 C 10,3 C 10,0 C 0,1 C 74 % 76 % 997,4 hPa 0,0 l/m 8,8 km/h (2 Bft) SO 0,00 h 5,8 C 9,4 C 15,6 km/h (3 Bft)
07.04.2022 09:00 11,1 C 9,6 C 11,1 C 12,6 C 12,5 C 1,5 C 73 % 73 % 996,5 hPa 0,0 l/m 9,5 km/h (2 Bft) SW 0,00 h 6,4 C 12,5 C 13,0 km/h (3 Bft)
07.04.2022 10:00 12,0 C 9,6 C 12,6 C 13,9 C 13,7 C 1,9 C 70 % 67 % 995,6 hPa 0,0 l/m 11,3 km/h (2 Bft) S-SW 0,00 h 6,6 C 13,7 C 15,3 km/h (3 Bft)
07.04.2022 11:00 12,7 C 9,7 C 14,5 C 14,3 C 14,0 C 1,6 C 66 % 60 % 994,8 hPa 0,0 l/m 13,2 km/h (3 Bft) S 0,00 h 6,5 C 14,0 C 21,3 km/h (4 Bft)
07.04.2022 12:00 13,2 C 9,8 C 15,0 C 15,1 C 14,9 C 1,9 C 65 % 59 % 993,4 hPa 0,0 l/m 13,9 km/h (3 Bft) SO 0,00 h 6,7 C 14,9 C 24,4 km/h (4 Bft)
07.04.2022 13:00 13,4 C 10,0 C 14,4 C 14,5 C 14,2 C 1,1 C 65 % 61 % 992,3 hPa 0,0 l/m 14,5 km/h (3 Bft) SO 0,00 h 6,8 C 14,2 C 24,2 km/h (4 Bft)
07.04.2022 14:00 13,5 C 10,1 C 14,6 C 15,0 C 14,8 C 1,5 C 66 % 62 % 990,7 hPa 0,0 l/m 15,0 km/h (3 Bft) S 0,00 h 7,3 C 14,8 C 25,3 km/h (4 Bft)
07.04.2022 15:00 13,9 C 10,2 C 14,6 C 15,4 C 15,1 C 1,5 C 66 % 62 % 989,2 hPa 0,0 l/m 15,7 km/h (3 Bft) S 0,00 h 7,5 C 15,1 C 21,5 km/h (4 Bft)
07.04.2022 16:00 13,7 C 10,4 C 13,7 C 13,9 C 13,5 C 0,2 C 67 % 67 % 988,3 hPa 0,0 l/m 12,8 km/h (3 Bft) S 0,00 h 7,8 C 13,5 C 19,4 km/h (3 Bft)
07.04.2022 17:00 10,8 C 10,9 C 9,7 C 10,0 C 7,6 C 0,0 C 78 % 84 % 989,0 hPa 2,1 l/m 11,8 km/h (2 Bft) S 0,00 h 7,1 C 5,7 C 15,3 km/h (3 Bft)
07.04.2022 18:00 10,1 C 10,8 C 8,8 C 10,9 C 10,6 C 1,0 C 83 % 89 % 989,4 hPa 0,0 l/m 6,8 km/h (2 Bft) S-SW 0,08 h 7,2 C 10,5 C 8,4 km/h (2 Bft)
07.04.2022 19:00 10,7 C 10,5 C 9,3 C 11,4 C 11,2 C 0,8 C 75 % 86 % 989,8 hPa 0,0 l/m 6,1 km/h (2 Bft) S 0,67 h 6,4 C 11,0 C 9,2 km/h (2 Bft)
07.04.2022 20:00 9,9 C 10,6 C 8,6 C 9,5 C 8,9 C 0,0 C 72 % 82 % 990,9 hPa 0,0 l/m 5,8 km/h (2 Bft) S-SW 0,00 h 5,0 C 8,3 C 7,9 km/h (2 Bft)
07.04.2022 21:00 8,5 C 10,4 C 6,9 C 7,9 C 6,2 C 0,0 C 73 % 85 % 992,1 hPa 0,0 l/m 8,3 km/h (2 Bft) SW 0,00 h 4,0 C 4,5 C 10,8 km/h (2 Bft)
07.04.2022 22:00 7,6 C 10,4 C 6,0 C 6,6 C 3,7 C 0,0 C 76 % 87 % 993,2 hPa 1,4 l/m 13,5 km/h (3 Bft) SW 0,00 h 3,6 C 0,4 C 16,6 km/h (3 Bft)
07.04.2022 23:00 6,1 C 10,2 C 4,7 C 5,3 C 2,9 C 0,0 C 81 % 90 % 994,5 hPa 0,0 l/m 11,1 km/h (2 Bft) SW 0,00 h 3,1 C -0,0 C 13,6 km/h (3 Bft)
08.04.2022 00:00 6,4 C 9,9 C 4,9 C 5,8 C 3,8 C 0,0 C 78 % 89 % 994,8 hPa 0,0 l/m 11,4 km/h (2 Bft) SW 0,00 h 2,9 C 1,0 C 13,6 km/h (3 Bft)
08.04.2022 01:00 7,2 C 9,7 C 5,9 C 6,8 C 5,7 C 0,0 C 72 % 86 % 995,0 hPa 0,0 l/m 8,8 km/h (2 Bft) S 0,00 h 2,5 C 3,8 C 10,7 km/h (2 Bft)
08.04.2022 02:00 7,4 C 9,6 C 6,3 C 7,0 C 6,0 C 0,0 C 68 % 79 % 995,2 hPa 0,7 l/m 8,8 km/h (2 Bft) S-SW 0,00 h 1,9 C 4,3 C 14,6 km/h (3 Bft)
08.04.2022 03:00 7,8 C 9,5 C 6,7 C 7,2 C 4,9 C 0,0 C 65 % 73 % 996,4 hPa 0,0 l/m 18,6 km/h (3 Bft) SW 0,00 h 1,6 C 1,1 C 24,9 km/h (4 Bft)
08.04.2022 04:00 7,1 C 9,4 C 6,0 C 6,3 C 4,1 C 0,0 C 68 % 74 % 997,4 hPa 0,0 l/m 14,9 km/h (3 Bft) SW 0,00 h 1,6 C 0,6 C 20,2 km/h (4 Bft)
08.04.2022 05:00 6,6 C 9,2 C 5,7 C 6,0 C 4,2 C 0,0 C 70 % 76 % 998,1 hPa 0,0 l/m 11,6 km/h (2 Bft) S-SW 0,00 h 1,6 C 1,3 C 13,4 km/h (3 Bft)
08.04.2022 06:00 6,3 C 9,1 C 5,6 C 5,7 C 3,8 C 0,0 C 72 % 76 % 999,0 hPa 0,0 l/m 12,2 km/h (2 Bft) SW 0,00 h 1,6 C 0,7 C 13,6 km/h (3 Bft)
08.04.2022 07:00 6,3 C 9,0 C 5,6 C 5,7 C 3,9 C 0,0 C 73 % 77 % 999,8 hPa 0,0 l/m 12,2 km/h (3 Bft) S 0,00 h 1,7 C 0,9 C 14,0 km/h (3 Bft)
08.04.2022 08:00 6,8 C 9,0 C 6,6 C 6,5 C 5,3 C 0,0 C 71 % 74 % 1001,2 hPa 0,0 l/m 12,3 km/h (3 Bft) SW 0,00 h 1,8 C 2,7 C 15,6 km/h (3 Bft)
08.04.2022 09:00 7,5 C 8,9 C 7,4 C 7,9 C 7,2 C 0,4 C 64 % 68 % 1001,7 hPa 0,0 l/m 12,8 km/h (3 Bft) SW 0,00 h 1,2 C 4,8 C 16,5 km/h (3 Bft)
08.04.2022 10:00 8,0 C 8,9 C 8,4 C 8,2 C 7,6 C 0,3 C 60 % 62 % 1002,1 hPa 0,0 l/m 11,9 km/h (2 Bft) SW 0,00 h 0,7 C 5,4 C 15,2 km/h (3 Bft)
08.04.2022 11:00 8,1 C 8,8 C 9,2 C 8,7 C 8,4 C 0,7 C 61 % 61 % 1002,4 hPa 0,0 l/m 8,7 km/h (2 Bft) SW 0,00 h 1,0 C 7,0 C 11,0 km/h (2 Bft)
08.04.2022 12:00 8,3 C 8,8 C 9,6 C 9,2 C 9,2 C 1,0 C 63 % 62 % 1002,3 hPa 0,0 l/m 6,8 km/h (2 Bft) W-SW 0,00 h 1,6 C 8,5 C 8,1 km/h (2 Bft)
08.04.2022 13:00 8,8 C 8,8 C 10,5 C 10,4 C 10,4 C 1,6 C 60 % 59 % 1001,2 hPa 0,0 l/m 6,0 km/h (2 Bft) W-SW 0,00 h 1,5 C 10,2 C 7,8 km/h (2 Bft)
08.04.2022 14:00 9,3 C 8,8 C 10,9 C 11,3 C 11,3 C 2,0 C 59 % 58 % 1000,5 hPa 0,0 l/m 4,2 km/h (1 Bft) S 0,00 h 1,7 C 11,3 C 4,3 km/h (1 Bft)
08.04.2022 15:00 8,7 C 8,9 C 9,1 C 9,1 C 9,0 C 0,4 C 62 % 63 % 1000,1 hPa 0,0 l/m 4,4 km/h (1 Bft) S-SO 0,00 h 1,8 C 8,9 C 5,5 km/h (1 Bft)
08.04.2022 16:00 7,1 C 9,0 C 7,4 C 7,0 C 6,4 C 0,0 C 68 % 69 % 999,9 hPa 0,0 l/m 7,4 km/h (2 Bft) S-SO 0,00 h 1,5 C 4,9 C 10,7 km/h (2 Bft)
08.04.2022 17:00 5,6 C 8,9 C 5,8 C 5,4 C 5,1 C 0,0 C 77 % 78 % 1000,1 hPa 0,0 l/m 4,5 km/h (1 Bft) SO 0,00 h 1,8 C 4,5 C 4,2 km/h (1 Bft)
08.04.2022 18:00 4,5 C 9,0 C 4,4 C 4,3 C 3,8 C 0,0 C 80 % 83 % 1000,4 hPa 0,0 l/m 1,9 km/h (1 Bft) SO 0,00 h 1,3 C 3,8 C 3,6 km/h (1 Bft)
08.04.2022 19:00 3,8 C 9,3 C 3,7 C 3,6 C 3,0 C 0,0 C 83 % 89 % 1000,2 hPa 0,0 l/m 1,5 km/h (1 Bft) S 0,00 h 1,2 C 3,0 C 2,0 km/h (1 Bft)
08.04.2022 20:00 3,3 C 9,2 C 3,2 C 3,1 C 2,6 C 0,0 C 85 % 90 % 999,9 hPa 0,0 l/m 1,9 km/h (1 Bft) S-SO 0,00 h 1,1 C 2,6 C 2,9 km/h (1 Bft)
08.04.2022 21:00 3,1 C 9,0 C 2,9 C 2,8 C 2,3 C 0,0 C 86 % 91 % 999,8 hPa 0,0 l/m 0,9 km/h (0 Bft) S-SO 0,00 h 1,0 C 2,3 C 0,8 km/h (0 Bft)
08.04.2022 22:00 3,0 C 8,9 C 2,6 C 2,8 C 2,2 C 0,0 C 86 % 91 % 999,6 hPa 0,0 l/m 1,5 km/h (1 Bft) S 0,00 h 0,9 C 2,2 C 2,2 km/h (1 Bft)
08.04.2022 23:00 3,0 C 8,9 C 2,4 C 2,8 C 2,3 C 0,0 C 86 % 91 % 999,0 hPa 0,0 l/m 0,9 km/h (0 Bft) S 0,00 h 0,9 C 2,3 C 0,9 km/h (0 Bft)
09.04.2022 00:00 2,8 C 8,9 C 2,5 C 2,6 C 2,3 C 0,0 C 86 % 91 % 998,9 hPa 0,0 l/m 0,1 km/h (0 Bft) SW 0,00 h 0,8 C 2,3 C 0,0 km/h (0 Bft)
09.04.2022 01:00 2,9 C 8,8 C 2,7 C 2,7 C 2,4 C 0,0 C 87 % 91 % 999,4 hPa 0,0 l/m 1,5 km/h (1 Bft) SW 0,00 h 0,9 C 2,4 C 2,6 km/h (1 Bft)
09.04.2022 02:00 2,9 C 8,8 C 2,6 C 2,7 C 2,3 C 0,0 C 87 % 91 % 1000,1 hPa 0,0 l/m 0,9 km/h (0 Bft) NO 0,00 h 0,9 C 2,3 C 1,0 km/h (0 Bft)
09.04.2022 03:00 2,8 C 8,7 C 2,4 C 2,6 C 2,1 C 0,0 C 87 % 91 % 1000,8 hPa 0,0 l/m 1,8 km/h (1 Bft) SW 0,00 h 0,9 C 2,1 C 2,2 km/h (1 Bft)
09.04.2022 04:00 2,8 C 8,7 C 2,4 C 2,6 C 2,1 C 0,0 C 87 % 91 % 1001,7 hPa 0,0 l/m 2,1 km/h (1 Bft) SW 0,00 h 0,9 C 2,1 C 2,9 km/h (1 Bft)
09.04.2022 05:00 3,1 C 8,5 C 2,3 C 2,8 C 2,2 C 0,0 C 87 % 91 % 1002,9 hPa 0,0 l/m 2,5 km/h (1 Bft) SW 0,00 h 1,2 C 2,2 C 3,3 km/h (1 Bft)
09.04.2022 06:00 3,0 C 8,3 C 2,1 C 2,8 C 2,2 C 0,0 C 87 % 91 % 1004,3 hPa 0,0 l/m 2,3 km/h (1 Bft) SW 0,00 h 1,1 C 2,2 C 3,6 km/h (1 Bft)
09.04.2022 07:00 3,4 C 8,2 C 2,9 C 3,0 C 2,1 C 0,0 C 86 % 91 % 1005,6 hPa 0,0 l/m 4,9 km/h (1 Bft) S-SW 0,00 h 1,2 C 1,2 C 7,1 km/h (2 Bft)
09.04.2022 08:00 4,2 C 8,1 C 3,9 C 3,8 C 2,8 C 0,0 C 82 % 91 % 1006,9 hPa 0,0 l/m 7,8 km/h (2 Bft) S-SW 0,00 h 1,4 C 0,6 C 11,0 km/h (2 Bft)
09.04.2022 09:00 4,7 C 8,1 C 4,8 C 4,5 C 3,7 C 0,0 C 78 % 88 % 1007,8 hPa 0,0 l/m 8,9 km/h (2 Bft) SW 0,00 h 1,2 C 1,3 C 11,9 km/h (2 Bft)
09.04.2022 10:00 5,8 C 8,0 C 7,0 C 6,6 C 6,0 C 0,8 C 73 % 79 % 1008,8 hPa 0,0 l/m 10,7 km/h (2 Bft) SW 0,00 h 1,2 C 3,7 C 14,4 km/h (3 Bft)
09.04.2022 11:00 5,8 C 8,0 C 8,3 C 6,2 C 5,4 C 0,4 C 72 % 72 % 1009,2 hPa 0,0 l/m 11,2 km/h (2 Bft) SW 0,00 h 1,2 C 2,9 C 16,0 km/h (3 Bft)
09.04.2022 12:00 5,5 C 8,0 C 8,7 C 6,2 C 5,2 C 0,8 C 76 % 70 % 1009,6 hPa 0,0 l/m 9,6 km/h (2 Bft) SW 0,00 h 1,6 C 3,0 C 14,4 km/h (3 Bft)
09.04.2022 13:00 7,3 C 7,9 C 11,3 C 10,1 C 9,8 C 2,8 C 70 % 63 % 1009,9 hPa 0,0 l/m 11,7 km/h (2 Bft) SW 0,25 h 2,2 C 9,0 C 15,1 km/h (3 Bft)
09.04.2022 14:00 8,9 C 8,0 C 12,5 C 11,9 C 11,6 C 3,0 C 62 % 54 % 1010,1 hPa 0,0 l/m 9,7 km/h (2 Bft) W 0,33 h 2,0 C 11,5 C 12,2 km/h (2 Bft)
09.04.2022 15:00 9,1 C 8,2 C 10,0 C 11,7 C 11,3 C 2,6 C 62 % 61 % 1010,3 hPa 0,0 l/m 11,9 km/h (2 Bft) SW 0,17 h 2,1 C 11,0 C 15,9 km/h (3 Bft)
09.04.2022 16:00 8,4 C 8,3 C 8,9 C 9,5 C 9,4 C 1,1 C 63 % 64 % 1010,5 hPa 0,0 l/m 6,3 km/h (2 Bft) SW 0,00 h 1,7 C 8,9 C 7,4 km/h (2 Bft)
09.04.2022 17:00 8,8 C 8,4 C 9,3 C 9,6 C 9,1 C 0,9 C 58 % 59 % 1011,1 hPa 0,0 l/m 9,5 km/h (2 Bft) SW 0,00 h 1,0 C 8,0 C 11,3 km/h (2 Bft)
09.04.2022 18:00 5,9 C 8,5 C 6,0 C 6,7 C 6,7 C 0,8 C 71 % 73 % 1012,4 hPa 0,0 l/m 3,4 km/h (1 Bft) SW 0,00 h 1,1 C 6,6 C 4,0 km/h (1 Bft)
09.04.2022 19:00 5,2 C 8,5 C 4,8 C 4,8 C 4,0 C 0,0 C 74 % 78 % 1012,9 hPa 0,0 l/m 5,4 km/h (1 Bft) SW 0,00 h 1,0 C 3,0 C 6,7 km/h (2 Bft)
09.04.2022 20:00 4,2 C 8,5 C 3,3 C 3,6 C 2,4 C 0,0 C 78 % 82 % 1013,6 hPa 0,0 l/m 4,4 km/h (1 Bft) S 0,00 h 0,8 C 2,1 C 5,1 km/h (1 Bft)
09.04.2022 21:00 3,7 C 8,5 C 2,5 C 3,0 C 1,7 C 0,0 C 79 % 84 % 1014,5 hPa 0,0 l/m 4,0 km/h (1 Bft) SW 0,00 h 0,4 C 1,5 C 5,3 km/h (1 Bft)
09.04.2022 22:00 3,1 C 8,6 C 1,9 C 2,2 C 0,4 C 0,0 C 81 % 86 % 1015,1 hPa 0,0 l/m 5,5 km/h (1 Bft) SW 0,00 h 0,2 C -1,3 C 6,5 km/h (2 Bft)
09.04.2022 23:00 2,9 C 8,5 C 1,8 C 2,1 C 0,4 C 0,0 C 82 % 87 % 1015,6 hPa 0,0 l/m 5,5 km/h (1 Bft) SW 0,00 h 0,1 C -1,3 C 6,5 km/h (2 Bft)
10.04.2022 00:00 2,7 C 8,4 C 1,5 C 1,9 C 0,4 C 0,0 C 83 % 87 % 1016,2 hPa 0,0 l/m 4,8 km/h (1 Bft) S-SO 0,00 h 0,0 C -0,8 C 5,6 km/h (1 Bft)
10.04.2022 01:00 2,4 C 8,3 C 1,2 C 1,5 C -0,2 C 0,0 C 83 % 88 % 1016,6 hPa 0,0 l/m 5,3 km/h (1 Bft) S 0,00 h -0,2 C -1,7 C 7,4 km/h (2 Bft)
10.04.2022 02:00 2,1 C 8,2 C 0,9 C 1,3 C -0,2 C 0,0 C 83 % 88 % 1016,7 hPa 0,0 l/m 4,6 km/h (1 Bft) SW 0,00 h -0,5 C -1,3 C 5,7 km/h (1 Bft)
10.04.2022 03:00 2,2 C 8,1 C 1,2 C 1,6 C 0,3 C 0,0 C 83 % 87 % 1016,8 hPa 0,0 l/m 4,4 km/h (1 Bft) O-NO 0,00 h -0,5 C -0,5 C 5,0 km/h (1 Bft)
10.04.2022 04:00 1,9 C 8,1 C 1,2 C 1,4 C 0,4 C 0,0 C 82 % 86 % 1016,9 hPa 0,0 l/m 3,8 km/h (1 Bft) S-SW 0,00 h -0,8 C 0,3 C 5,4 km/h (1 Bft)
10.04.2022 05:00 1,9 C 8,0 C 1,2 C 1,0 C -0,6 C 0,0 C 81 % 85 % 1017,0 hPa 0,0 l/m 6,3 km/h (2 Bft) SW 0,00 h -1,0 C -2,9 C 7,9 km/h (2 Bft)
10.04.2022 06:00 1,8 C 7,9 C 1,2 C 1,1 C -0,1 C 0,0 C 82 % 85 % 1017,3 hPa 0,0 l/m 4,9 km/h (1 Bft) S 0,00 h -1,0 C -1,1 C 5,6 km/h (1 Bft)
10.04.2022 07:00 2,4 C 7,7 C 2,2 C 1,8 C 0,7 C 0,0 C 81 % 84 % 1017,9 hPa 0,0 l/m 6,6 km/h (2 Bft) SW 0,00 h -0,5 C -1,4 C 7,6 km/h (2 Bft)
10.04.2022 08:00 3,0 C 7,7 C 3,1 C 3,7 C 3,2 C 0,8 C 80 % 82 % 1018,7 hPa 0,0 l/m 7,2 km/h (2 Bft) S 0,00 h -0,1 C 1,4 C 9,6 km/h (2 Bft)
10.04.2022 09:00 4,2 C 7,6 C 5,0 C 4,8 C 4,2 C 0,7 C 75 % 75 % 1019,1 hPa 0,0 l/m 9,5 km/h (2 Bft) SW 0,00 h 0,1 C 1,8 C 13,6 km/h (3 Bft)
10.04.2022 10:00 4,7 C 7,5 C 5,5 C 5,0 C 4,6 C 0,4 C 71 % 71 % 1019,7 hPa 0,0 l/m 8,3 km/h (2 Bft) W-SW 0,00 h -0,1 C 2,7 C 10,3 km/h (2 Bft)
10.04.2022 11:00 5,4 C 7,5 C 7,0 C 6,3 C 6,2 C 1,0 C 69 % 67 % 1020,1 hPa 0,0 l/m 6,4 km/h (2 Bft) SW 0,00 h 0,1 C 5,0 C 8,2 km/h (2 Bft)
10.04.2022 12:00 6,0 C 7,5 C 10,0 C 8,5 C 8,3 C 2,5 C 67 % 60 % 1020,1 hPa 0,0 l/m 7,8 km/h (2 Bft) W-SW 0,42 h 0,3 C 7,3 C 11,0 km/h (2 Bft)
10.04.2022 13:00 7,3 C 7,6 C 11,4 C 10,2 C 9,7 C 2,9 C 60 % 52 % 1019,9 hPa 0,0 l/m 10,3 km/h (2 Bft) SW 0,50 h 0,0 C 8,7 C 14,2 km/h (3 Bft)
10.04.2022 14:00 8,0 C 7,6 C 11,9 C 11,3 C 11,1 C 3,3 C 59 % 51 % 1020,0 hPa 0,0 l/m 9,5 km/h (2 Bft) SW 0,75 h 0,6 C 10,8 C 10,1 km/h (2 Bft)
10.04.2022 15:00 7,7 C 7,8 C 9,2 C 9,9 C 9,5 C 2,2 C 60 % 58 % 1020,1 hPa 0,0 l/m 10,6 km/h (2 Bft) SW 0,25 h 0,5 C 8,4 C 15,5 km/h (3 Bft)
10.04.2022 16:00 7,4 C 7,9 C 8,1 C 9,7 C 9,3 C 2,3 C 64 % 66 % 1020,4 hPa 0,0 l/m 7,9 km/h (2 Bft) SW 0,08 h 1,1 C 8,4 C 10,3 km/h (2 Bft)
10.04.2022 17:00 8,1 C 8,0 C 9,1 C 10,0 C 9,9 C 1,9 C 61 % 62 % 1020,2 hPa 0,0 l/m 6,0 km/h (2 Bft) SW 0,00 h 1,1 C 9,6 C 7,5 km/h (2 Bft)
10.04.2022 18:00 8,2 C 8,1 C 8,9 C 9,3 C 8,8 C 1,1 C 60 % 60 % 1020,4 hPa 0,0 l/m 9,2 km/h (2 Bft) S 0,00 h 0,9 C 7,5 C 11,0 km/h (2 Bft)
10.04.2022 19:00 6,7 C 8,3 C 6,5 C 6,5 C 5,7 C 0,0 C 67 % 69 % 1020,7 hPa 0,0 l/m 6,5 km/h (2 Bft) W-SW 0,08 h 1,1 C 4,3 C 7,2 km/h (2 Bft)
10.04.2022 20:00 5,3 C 8,3 C 4,4 C 4,9 C 4,3 C 0,0 C 71 % 74 % 1021,6 hPa 0,0 l/m 0,6 km/h (0 Bft) W-SW 0,00 h 0,4 C 4,3 C 0,9 km/h (0 Bft)
10.04.2022 21:00 4,4 C 8,3 C 2,9 C 4,0 C 3,0 C 0,0 C 73 % 79 % 1022,4 hPa 0,0 l/m 1,5 km/h (1 Bft) W-SW 0,00 h 0,0 C 3,0 C 1,4 km/h (1 Bft)
10.04.2022 22:00 2,9 C 8,3 C 1,2 C 2,1 C 0,7 C 0,0 C 75 % 82 % 1022,7 hPa 0,0 l/m 0,0 km/h (0 Bft) N 0,00 h -1,1 C 0,7 C 0,0 km/h (0 Bft)
10.04.2022 23:00 1,7 C 8,5 C 0,0 C 1,1 C -0,2 C 0,0 C 79 % 86 % 1023,2 hPa 0,0 l/m 0,0 km/h (0 Bft) N 0,00 h -1,5 C -0,2 C 0,0 km/h (0 Bft)
Min-Datum _ 04.04.22 04.04.22 04.04.22 04.04.22 04.04.22 04.04.22 04.04.22 04.04.22 07.04.22 - 08.04.22 - - 04.04.22 04.04.22 04.04.22
_ Min-Zeit 05:25 07:55 05:25 04:25 04:25 00:00 15:05 14:20 16:45 - 22:00 - - 07:25 22:40 02:35
Minimum _ 0,4 C 5,8 C -0,6 C -0,3 C -2,4 C 0,0 C 48 % 43 % 987,8 hPa - 0,0 km/h (0 Bft) - - -4,4 C -5,5 C 0,0 km/h (0 Bft)
Max-Datum _ 06.04.22 07.04.22 06.04.22 06.04.22 06.04.22 04.04.22 05.04.22 05.04.22 10.04.22 05.04.22 08.04.22 - 04.04.22 07.04.22 06.04.22 07.04.22
_ Max-Zeit 15:50 17:35 14:00 14:00 14:00 08:35 05:25 06:45 23:45 03:00 03:30 - 08:20 17:15 14:00 15:15
Maximum _ 14,4 C 11,1 C 17,8 C 17,8 C 17,8 C 5,7 C 88 % 92 % 1023,3 hPa 2,7 l/m 21,1 km/h
SW (4 Bft)
- 0,08 h 8,3 C 17,8 C 57,5 km/h
S (7 Bft)
Durchschnitt _ 6,8 C 8,3 C 6,7 C 7,0 C 6,1 C 0,5 C 74 % 77 % 1006,8 hPa #15,1 l/m 7,8 km/h (2 Bft) SW #5:10 h 2,4 C 4,9 C 10,4 km/h (2 Bft)
2022 www.wetterstation-wechselburg.de